createdAt,value
2017-07-06T00:00:39.415Z,99.90
2017-07-06T00:03:08.438Z,99.90
2017-07-06T00:05:37.438Z,99.90
2017-07-06T00:08:07.330Z,99.90
2017-07-06T00:10:36.326Z,99.90
2017-07-06T00:13:07.145Z,99.90
2017-07-06T00:15:36.130Z,99.90
2017-07-06T00:18:05.107Z,99.90
2017-07-06T00:20:34.160Z,99.90
2017-07-06T00:23:03.553Z,99.90
2017-07-06T00:25:32.513Z,99.90
2017-07-06T00:29:20.793Z,99.90
2017-07-06T00:31:50.021Z,99.90
2017-07-06T00:34:18.981Z,99.90
2017-07-06T00:36:47.938Z,99.90
2017-07-06T00:39:16.877Z,99.90
2017-07-06T00:41:45.858Z,99.90
2017-07-06T00:44:14.803Z,99.90
2017-07-06T00:46:43.789Z,99.90
2017-07-06T00:49:13.210Z,99.90
2017-07-06T00:51:42.194Z,99.90
2017-07-06T00:54:11.160Z,99.90
2017-07-06T00:56:40.130Z,99.90
2017-07-06T00:59:09.067Z,99.90
2017-07-06T01:01:38.286Z,99.90
2017-07-06T01:04:07.248Z,99.90
2017-07-06T01:06:36.209Z,99.90
2017-07-06T01:09:05.386Z,99.90
2017-07-06T01:11:34.383Z,99.90
2017-07-06T01:14:03.461Z,99.90
2017-07-06T01:16:32.734Z,99.90
2017-07-06T01:19:01.733Z,99.90
2017-07-06T01:21:30.843Z,99.90
2017-07-06T01:23:59.904Z,99.90
2017-07-06T01:26:29.216Z,99.90
2017-07-06T01:28:58.177Z,99.90
2017-07-06T01:31:27.182Z,99.90
2017-07-06T01:33:56.153Z,99.90
2017-07-06T01:36:25.128Z,99.90
2017-07-06T01:38:54.170Z,99.90
2017-07-06T01:41:23.153Z,99.90
2017-07-06T01:43:53.552Z,99.90
2017-07-06T01:46:22.597Z,99.90
2017-07-06T01:48:51.568Z,99.90
2017-07-06T01:51:21.563Z,99.90
2017-07-06T01:53:50.625Z,99.90
2017-07-06T01:56:19.706Z,99.90
2017-07-06T01:58:48.827Z,99.90
2017-07-06T02:01:17.865Z,99.90
2017-07-06T02:03:46.844Z,99.90
2017-07-06T02:06:15.799Z,99.90
2017-07-06T02:08:44.802Z,99.90
2017-07-06T02:11:13.808Z,99.90
2017-07-06T02:13:42.750Z,99.90
2017-07-06T02:16:11.749Z,99.90
2017-07-06T02:18:40.686Z,99.90
2017-07-06T02:21:09.674Z,99.90
2017-07-06T02:23:38.837Z,99.90
2017-07-06T03:09:49.810Z,99.90
2017-07-06T03:12:18.774Z,99.90
2017-07-06T03:14:47.827Z,99.90
2017-07-06T03:17:16.797Z,99.90
2017-07-06T03:19:45.804Z,99.90
2017-07-06T03:22:14.722Z,99.90
2017-07-06T03:24:43.822Z,99.90
2017-07-06T03:27:12.933Z,99.90
2017-07-06T03:29:41.917Z,99.90
2017-07-06T03:32:11.178Z,99.90
2017-07-06T03:34:41.681Z,99.90
2017-07-06T03:37:10.642Z,99.90
2017-07-06T03:39:40.477Z,99.90
2017-07-06T03:42:09.515Z,99.90
2017-07-06T03:44:38.477Z,99.90
2017-07-06T03:47:08.122Z,99.90
2017-07-06T03:49:37.082Z,99.90
2017-07-06T03:52:06.145Z,99.90
2017-07-06T03:54:35.115Z,99.90
2017-07-06T03:57:04.069Z,99.90
2017-07-06T03:59:33.066Z,99.90
2017-07-06T04:02:02.265Z,99.90
2017-07-06T04:04:33.600Z,99.90
2017-07-06T04:07:02.613Z,99.90
2017-07-06T04:09:31.568Z,99.90
2017-07-06T04:12:00.603Z,99.90
2017-07-06T04:14:29.563Z,99.90
2017-07-06T04:16:58.538Z,99.90
2017-07-06T04:19:27.536Z,99.90
2017-07-06T04:21:56.477Z,99.90
2017-07-06T04:24:25.467Z,99.90
2017-07-06T04:26:54.852Z,99.90
2017-07-06T04:29:23.845Z,99.90
2017-07-06T04:31:52.798Z,99.90
2017-07-06T04:34:21.781Z,99.90
2017-07-06T04:36:50.753Z,99.90
2017-07-06T04:39:19.754Z,99.90
2017-07-06T04:41:48.716Z,99.90
2017-07-06T04:44:17.708Z,99.90
2017-07-06T04:46:46.682Z,99.90
2017-07-06T04:49:15.713Z,99.90
2017-07-06T04:51:44.734Z,99.90
2017-07-06T04:54:13.732Z,99.90
2017-07-06T04:56:42.741Z,99.90
2017-07-06T04:59:11.750Z,99.90
2017-07-06T05:01:40.939Z,99.90
2017-07-06T05:04:09.901Z,99.90
2017-07-06T05:06:38.882Z,99.90
2017-07-06T05:09:07.858Z,99.90
2017-07-06T05:11:36.810Z,99.90
2017-07-06T05:14:05.810Z,99.90
2017-07-06T05:16:34.858Z,99.90
2017-07-06T05:19:03.846Z,99.90
2017-07-06T05:21:32.871Z,99.90
2017-07-06T05:24:01.877Z,99.90
2017-07-06T05:26:30.837Z,99.60
2017-07-06T05:28:59.822Z,99.90
2017-07-06T05:31:28.776Z,99.30
2017-07-06T05:33:57.737Z,97.90
2017-07-06T05:36:26.813Z,96.60
2017-07-06T05:38:55.869Z,96.30
2017-07-06T05:41:24.912Z,95.60
2017-07-06T05:43:54.001Z,95.80
2017-07-06T05:46:23.008Z,94.70
2017-07-06T05:48:52.351Z,93.10
2017-07-06T05:51:21.408Z,92.50
2017-07-06T05:53:50.381Z,91.70
2017-07-06T05:56:19.363Z,90.50
2017-07-06T05:58:48.475Z,89.50
2017-07-06T06:01:17.493Z,90.20
2017-07-06T06:03:46.513Z,90.50
2017-07-06T06:06:15.481Z,90.90
2017-07-06T06:08:44.531Z,91.10
2017-07-06T06:11:13.570Z,91.70
2017-07-06T06:14:44.975Z,92.30
2017-07-06T06:17:14.032Z,92.80
2017-07-06T06:19:43.087Z,93.10
2017-07-06T06:22:12.120Z,93.50
2017-07-06T06:24:41.110Z,93.80
2017-07-06T06:27:10.099Z,93.90
2017-07-06T06:29:39.153Z,93.80
2017-07-06T06:32:08.163Z,93.70
2017-07-06T06:34:37.147Z,92.60
2017-07-06T06:37:06.122Z,92.20
2017-07-06T06:39:35.166Z,91.60
2017-07-06T06:42:05.164Z,90.70
2017-07-06T06:44:34.187Z,89.70
2017-07-06T06:47:03.618Z,88.00
2017-07-06T06:49:32.610Z,86.40
2017-07-06T06:52:01.598Z,85.00
2017-07-06T06:54:30.568Z,84.60
2017-07-06T06:56:59.598Z,80.80
2017-07-06T06:59:28.651Z,78.40
2017-07-06T07:01:57.627Z,80.10
2017-07-06T07:04:56.945Z,76.10
2017-07-06T07:07:26.338Z,71.10
2017-07-06T07:09:55.371Z,73.20
2017-07-06T07:12:24.447Z,72.10
2017-07-06T07:14:53.468Z,72.20
2017-07-06T07:17:24.069Z,69.00
2017-07-06T07:19:53.047Z,68.00
2017-07-06T07:22:21.989Z,65.70
2017-07-06T07:24:50.978Z,66.60
2017-07-06T07:27:20.039Z,68.30
2017-07-06T07:29:49.057Z,68.40
2017-07-06T07:32:18.077Z,63.90
2017-07-06T07:34:47.388Z,63.60
2017-07-06T07:37:16.517Z,61.70
2017-07-06T07:39:45.515Z,57.00
2017-07-06T07:42:14.649Z,57.60
2017-07-06T07:44:43.651Z,57.30
2017-07-06T07:47:12.747Z,57.10
2017-07-06T07:49:41.729Z,55.80
2017-07-06T07:52:10.699Z,54.60
2017-07-06T07:54:39.719Z,55.40
2017-07-06T07:57:08.757Z,52.70
2017-07-06T07:59:37.754Z,54.80
2017-07-06T08:02:06.781Z,55.20
2017-07-06T08:04:35.790Z,58.10
2017-07-06T08:07:04.829Z,57.40
2017-07-06T08:09:33.819Z,57.50
2017-07-06T08:12:02.784Z,55.50
2017-07-06T08:14:32.095Z,58.20
2017-07-06T08:17:01.259Z,55.20
2017-07-06T08:19:30.638Z,56.00
2017-07-06T08:21:59.698Z,55.70
2017-07-06T08:24:28.699Z,52.20
2017-07-06T08:26:57.814Z,52.80
2017-07-06T08:29:26.908Z,51.30
2017-07-06T08:31:55.952Z,52.70
2017-07-06T08:34:24.979Z,54.60
2017-07-06T08:36:53.973Z,51.70
2017-07-06T08:39:22.914Z,54.10
2017-07-06T08:41:51.881Z,51.70
2017-07-06T08:44:20.891Z,50.40
2017-07-06T08:46:49.910Z,51.00
2017-07-06T08:49:18.945Z,50.00
2017-07-06T08:51:47.997Z,49.60
2017-07-06T08:54:17.010Z,47.70
2017-07-06T08:56:46.009Z,45.90
2017-07-06T08:59:15.279Z,46.20
2017-07-06T09:01:44.278Z,46.10
2017-07-06T09:04:15.727Z,47.70
2017-07-06T09:06:44.750Z,49.20
2017-07-06T09:09:13.834Z,47.60
2017-07-06T09:11:42.914Z,45.80
2017-07-06T09:17:11.186Z,45.90
2017-07-06T09:19:40.274Z,42.30
2017-07-06T09:22:09.316Z,40.70
2017-07-06T09:24:38.375Z,40.00
2017-07-06T09:27:07.768Z,41.00
2017-07-06T09:29:36.860Z,40.60
2017-07-06T09:32:05.894Z,39.00
2017-07-06T09:34:34.865Z,39.20
2017-07-06T09:37:03.924Z,37.40
2017-07-06T09:39:32.906Z,35.50
2017-07-06T09:42:01.929Z,37.10
2017-07-06T09:44:30.957Z,40.50
2017-07-06T09:47:00.057Z,38.80
2017-07-06T09:50:31.410Z,39.90
2017-07-06T09:53:00.704Z,41.60
2017-07-06T09:55:29.785Z,42.40
2017-07-06T09:58:00.238Z,39.80
2017-07-06T10:00:29.443Z,39.40
2017-07-06T10:02:58.449Z,40.10
2017-07-06T10:05:27.498Z,42.60
2017-07-06T10:07:56.529Z,44.10
2017-07-06T10:10:25.638Z,46.60
2017-07-06T10:12:54.646Z,46.40
2017-07-06T10:15:23.626Z,49.00
2017-07-06T10:17:53.144Z,49.00
2017-07-06T10:20:22.195Z,46.80
2017-07-06T10:22:51.146Z,45.70
2017-07-06T10:25:20.227Z,48.10
2017-07-06T10:27:49.243Z,50.00
2017-07-06T10:30:18.327Z,45.20
2017-07-06T10:34:06.680Z,43.60
2017-07-06T10:40:07.295Z,42.30
2017-07-06T10:42:36.386Z,45.10
2017-07-06T10:45:05.438Z,45.50
2017-07-06T10:47:34.422Z,45.70
2017-07-06T10:50:03.445Z,47.10
2017-07-06T10:52:32.421Z,49.10
2017-07-06T10:55:01.443Z,43.00
2017-07-06T10:57:30.586Z,40.00
2017-07-06T10:59:59.585Z,42.70
2017-07-06T11:02:28.696Z,40.30
2017-07-06T11:04:57.788Z,43.70
2017-07-06T11:07:26.808Z,42.10
2017-07-06T11:09:55.998Z,39.00
2017-07-06T11:12:25.114Z,40.40
2017-07-06T11:14:54.189Z,39.70
2017-07-06T11:17:23.225Z,43.40
2017-07-06T11:20:22.656Z,47.40
2017-07-06T11:22:51.739Z,42.30
2017-07-06T11:25:20.817Z,40.60
2017-07-06T11:27:49.861Z,42.20
2017-07-06T11:30:18.932Z,39.40
2017-07-06T11:32:48.013Z,43.10
2017-07-06T11:35:17.159Z,40.10
2017-07-06T11:37:46.414Z,39.40
2017-07-06T11:40:19.219Z,41.80
2017-07-06T11:42:48.374Z,46.00
2017-07-06T11:45:17.491Z,39.60
2017-07-06T11:47:46.778Z,41.60
2017-07-06T11:50:15.897Z,41.50
2017-07-06T11:52:44.929Z,47.30
2017-07-06T11:55:14.039Z,44.00
2017-07-06T11:57:43.412Z,41.00
2017-07-06T12:00:12.422Z,42.00
2017-07-06T12:02:41.461Z,41.50
2017-07-06T12:05:10.720Z,41.90
2017-07-06T12:07:39.721Z,41.00
2017-07-06T12:10:08.793Z,39.40
2017-07-06T12:12:37.854Z,42.80
2017-07-06T12:15:06.909Z,45.50
2017-07-06T12:17:36.088Z,44.10
2017-07-06T12:20:06.018Z,43.70
2017-07-06T12:22:35.070Z,45.90
2017-07-06T12:25:04.065Z,43.40
2017-07-06T12:27:33.086Z,41.70
2017-07-06T12:30:02.113Z,44.10
2017-07-06T12:32:31.157Z,45.60
2017-07-06T12:35:00.161Z,44.60
2017-07-06T12:37:29.266Z,44.70
2017-07-06T12:39:58.291Z,45.50
2017-07-06T12:42:27.342Z,49.40
2017-07-06T12:44:56.375Z,45.30
2017-07-06T12:47:25.481Z,42.10
2017-07-06T12:49:54.505Z,44.20
2017-07-06T12:55:55.042Z,43.70
2017-07-06T12:58:24.079Z,48.00
2017-07-06T13:00:53.128Z,45.30
2017-07-06T13:03:22.434Z,46.20
2017-07-06T13:05:51.948Z,48.40
2017-07-06T13:08:20.945Z,47.40
2017-07-06T13:10:50.096Z,46.50
2017-07-06T13:13:19.297Z,47.20
2017-07-06T13:15:48.321Z,48.40
2017-07-06T13:18:17.526Z,45.10
2017-07-06T13:20:47.037Z,48.30
2017-07-06T13:23:16.149Z,47.70
2017-07-06T13:25:45.239Z,47.20
2017-07-06T13:28:14.887Z,49.10
2017-07-06T13:30:43.923Z,46.70
2017-07-06T13:33:13.462Z,43.70
2017-07-06T13:35:42.575Z,46.50
2017-07-06T13:38:11.682Z,44.10
2017-07-06T13:40:40.733Z,44.20
2017-07-06T13:43:09.812Z,44.20
2017-07-06T13:45:38.803Z,44.90
2017-07-06T13:48:07.944Z,47.10
2017-07-06T13:50:37.207Z,46.70
2017-07-06T13:53:06.414Z,49.90
2017-07-06T13:55:35.585Z,49.70
2017-07-06T13:58:04.673Z,50.20
2017-07-06T14:00:33.739Z,50.70
2017-07-06T14:03:02.749Z,49.90
2017-07-06T14:05:31.809Z,49.80
2017-07-06T14:08:01.185Z,49.60
2017-07-06T14:10:30.240Z,52.10
2017-07-06T14:12:59.308Z,47.70
2017-07-06T14:15:28.347Z,47.40
2017-07-06T14:17:57.462Z,45.00
2017-07-06T14:20:27.132Z,46.10
2017-07-06T14:22:56.150Z,47.10
2017-07-06T14:25:25.528Z,50.10
2017-07-06T14:27:54.542Z,49.80
2017-07-06T14:30:23.550Z,50.10
2017-07-06T14:32:52.565Z,51.70
2017-07-06T14:35:21.559Z,49.90
2017-07-06T14:37:50.581Z,51.60
2017-07-06T14:40:19.872Z,52.20
2017-07-06T14:42:48.849Z,52.40
2017-07-06T14:45:17.894Z,52.70
2017-07-06T14:47:46.943Z,53.80
2017-07-06T14:50:15.919Z,51.50
2017-07-06T14:52:45.921Z,52.90
2017-07-06T14:56:17.933Z,51.90
2017-07-06T14:58:46.960Z,57.10
2017-07-06T15:01:15.991Z,52.20
2017-07-06T15:03:45.046Z,52.00
2017-07-06T15:06:14.115Z,52.50
2017-07-06T15:08:43.230Z,51.10
2017-07-06T15:11:12.543Z,54.40
2017-07-06T15:13:41.630Z,51.80
2017-07-06T15:16:10.686Z,54.00
2017-07-06T15:18:40.565Z,51.10
2017-07-06T15:21:09.645Z,54.00
2017-07-06T15:23:38.729Z,52.40
2017-07-06T15:26:07.835Z,52.60
2017-07-06T15:28:36.902Z,54.20
2017-07-06T15:31:06.127Z,55.20
2017-07-06T15:33:35.163Z,55.40
2017-07-06T15:36:04.261Z,56.60
2017-07-06T15:38:33.286Z,56.60
2017-07-06T15:41:02.336Z,54.60
2017-07-06T15:43:31.426Z,55.50
2017-07-06T15:46:00.576Z,53.10
2017-07-06T15:48:29.631Z,54.40
2017-07-06T15:50:58.711Z,54.60
2017-07-06T15:53:27.809Z,58.20
2017-07-06T15:55:56.847Z,56.80
2017-07-06T15:58:25.967Z,57.30
2017-07-06T16:00:55.001Z,58.20
2017-07-06T16:03:24.044Z,62.00
2017-07-06T16:05:53.088Z,62.50
2017-07-06T16:08:22.153Z,60.50
2017-07-06T16:10:58.169Z,62.30
2017-07-06T16:13:27.201Z,59.20
2017-07-06T16:15:56.247Z,58.40
2017-07-06T16:18:25.306Z,57.80
2017-07-06T16:20:54.687Z,56.10
2017-07-06T16:23:23.727Z,56.00
2017-07-06T16:25:52.849Z,57.30
2017-07-06T16:28:21.965Z,58.40
2017-07-06T16:30:51.071Z,60.00
2017-07-06T16:33:21.472Z,61.20
2017-07-06T16:35:50.522Z,61.60
2017-07-06T16:38:19.562Z,58.80
2017-07-06T16:40:48.726Z,58.60
2017-07-06T16:43:17.882Z,58.20
2017-07-06T16:45:46.916Z,60.50
2017-07-06T16:48:16.209Z,58.20
2017-07-06T16:50:51.687Z,57.80
2017-07-06T16:53:20.657Z,58.40
2017-07-06T16:55:49.736Z,59.20
2017-07-06T16:58:18.999Z,58.30
2017-07-06T17:00:48.204Z,70.30
2017-07-06T17:03:17.390Z,66.10
2017-07-06T17:05:46.732Z,66.10
2017-07-06T17:08:16.504Z,67.70
2017-07-06T17:10:45.531Z,69.50
2017-07-06T17:13:14.592Z,70.30
2017-07-06T17:15:43.741Z,70.70
2017-07-06T17:18:12.745Z,71.80
2017-07-06T17:20:41.740Z,70.70
2017-07-06T17:23:10.822Z,70.90
2017-07-06T17:25:39.869Z,76.30
2017-07-06T17:28:08.935Z,78.40
2017-07-06T17:30:38.055Z,76.90
2017-07-06T17:33:07.103Z,80.60
2017-07-06T17:35:36.134Z,81.60
2017-07-06T17:38:05.848Z,85.70
2017-07-06T17:40:34.909Z,84.30
2017-07-06T17:43:04.049Z,82.70
2017-07-06T17:45:33.449Z,84.20
2017-07-06T17:48:02.468Z,83.50
2017-07-06T17:50:31.471Z,83.50
2017-07-06T17:53:00.830Z,82.60
2017-07-06T17:55:29.858Z,83.30
2017-07-06T17:57:58.953Z,87.00
2017-07-06T18:00:27.974Z,86.00
2017-07-06T18:02:57.039Z,87.00
2017-07-06T18:05:26.190Z,85.20
2017-07-06T18:07:55.216Z,83.70
2017-07-06T18:10:24.263Z,83.60
2017-07-06T18:12:53.302Z,84.70
2017-07-06T18:15:27.876Z,82.30
2017-07-06T18:17:56.938Z,82.70
2017-07-06T18:20:25.986Z,82.60
2017-07-06T18:22:54.942Z,83.40
2017-07-06T18:25:23.971Z,84.10
2017-07-06T18:27:52.994Z,82.50
2017-07-06T18:30:22.077Z,75.80
2017-07-06T18:32:51.156Z,78.70
2017-07-06T18:35:20.255Z,86.60
2017-07-06T18:37:49.422Z,86.50
2017-07-06T18:40:18.511Z,91.50
2017-07-06T18:42:47.620Z,91.90
2017-07-06T18:45:16.717Z,92.60
2017-07-06T18:47:45.715Z,94.10
2017-07-06T18:50:14.752Z,94.70
2017-07-06T18:52:43.814Z,96.40
2017-07-06T18:55:12.760Z,96.90
2017-07-06T18:57:41.777Z,97.90
2017-07-06T19:00:10.813Z,98.80
2017-07-06T19:02:39.898Z,99.30
2017-07-06T19:05:08.944Z,98.30
2017-07-06T19:07:38.058Z,99.80
2017-07-06T19:10:07.102Z,99.90
2017-07-06T19:12:36.131Z,98.70
2017-07-06T19:15:05.209Z,99.90
2017-07-06T19:17:34.581Z,99.90
2017-07-06T19:20:03.729Z,99.90
2017-07-06T19:22:32.747Z,99.90
2017-07-06T19:25:01.814Z,99.90
2017-07-06T19:27:30.953Z,99.90
2017-07-06T19:30:01.171Z,99.90
2017-07-06T19:32:30.194Z,99.90
2017-07-06T19:34:59.230Z,99.90
2017-07-06T19:37:28.325Z,99.90
2017-07-06T19:39:57.408Z,99.90
2017-07-06T19:42:26.506Z,99.90
2017-07-06T19:44:55.574Z,99.90
2017-07-06T19:47:24.664Z,99.90
2017-07-06T19:49:53.678Z,99.90
2017-07-06T19:52:22.752Z,99.90
2017-07-06T19:54:51.757Z,99.90
2017-07-06T19:57:20.865Z,99.90
2017-07-06T19:59:49.976Z,99.90
2017-07-06T20:02:18.986Z,99.90
2017-07-06T20:07:47.310Z,99.90
2017-07-06T20:10:16.342Z,99.90
2017-07-06T20:13:15.534Z,99.90
2017-07-06T20:15:44.550Z,99.90
2017-07-06T20:18:13.579Z,99.90
2017-07-06T20:20:42.617Z,99.90
2017-07-06T20:23:11.666Z,99.90
2017-07-06T20:25:40.699Z,99.90
2017-07-06T20:28:09.893Z,99.90
2017-07-06T20:30:39.062Z,99.90
2017-07-06T20:33:08.419Z,99.90
2017-07-06T20:35:37.601Z,99.90
2017-07-06T20:38:06.601Z,99.90
2017-07-06T20:40:35.629Z,99.90
2017-07-06T20:43:04.666Z,99.70
2017-07-06T20:45:33.669Z,99.90
2017-07-06T20:48:02.680Z,99.70
2017-07-06T20:50:31.710Z,99.70
2017-07-06T20:53:00.732Z,99.90
2017-07-06T20:55:29.811Z,99.90
2017-07-06T20:57:58.926Z,99.90
2017-07-06T21:00:28.010Z,99.90
2017-07-06T21:02:57.058Z,99.90
2017-07-06T21:05:26.078Z,99.70
2017-07-06T21:07:55.048Z,99.50
2017-07-06T21:10:24.019Z,99.80
2017-07-06T21:12:53.071Z,99.70
2017-07-06T21:15:22.077Z,99.80
2017-07-06T21:17:51.266Z,99.90
2017-07-06T21:20:20.357Z,99.70
2017-07-06T21:22:49.472Z,98.50
2017-07-06T21:25:18.543Z,99.10
2017-07-06T21:27:47.532Z,98.90
2017-07-06T21:30:16.506Z,98.00
2017-07-06T21:32:45.561Z,98.30
2017-07-06T21:35:14.634Z,98.50
2017-07-06T21:37:43.658Z,98.00
2017-07-06T21:40:12.655Z,98.20
2017-07-06T21:42:41.663Z,99.00
2017-07-06T21:45:10.673Z,99.60
2017-07-06T21:47:39.701Z,99.50
2017-07-06T21:50:08.744Z,99.20
2017-07-06T21:52:37.766Z,98.60
2017-07-06T22:38:47.149Z,98.20
2017-07-06T22:41:16.127Z,99.90
2017-07-06T22:43:45.093Z,99.90
2017-07-06T22:46:14.097Z,99.90
2017-07-06T22:48:43.089Z,99.90
2017-07-06T22:51:12.049Z,99.90
2017-07-06T22:53:41.073Z,99.90
2017-07-06T22:56:10.064Z,99.90
2017-07-06T22:58:39.345Z,99.90
2017-07-06T23:01:08.399Z,99.90
2017-07-06T23:03:37.358Z,99.90
2017-07-06T23:06:06.340Z,99.90
2017-07-06T23:08:35.329Z,99.90
2017-07-06T23:11:04.296Z,99.90
2017-07-06T23:13:33.296Z,99.90
2017-07-06T23:16:02.264Z,99.90
2017-07-06T23:18:31.241Z,99.90
2017-07-06T23:21:00.190Z,99.90
2017-07-06T23:23:29.498Z,99.90
2017-07-06T23:25:58.460Z,99.90
2017-07-06T23:28:27.409Z,99.90
2017-07-06T23:32:15.733Z,99.90
2017-07-06T23:34:44.685Z,99.90
2017-07-06T23:37:13.661Z,99.90
2017-07-06T23:39:42.638Z,99.90
2017-07-06T23:42:11.626Z,99.90
2017-07-06T23:44:40.621Z,99.90
2017-07-06T23:47:09.603Z,99.90
2017-07-06T23:49:38.619Z,99.90
2017-07-06T23:52:10.536Z,99.90
2017-07-06T23:54:39.498Z,99.90
2017-07-06T23:57:08.432Z,99.90
2017-07-06T23:59:37.474Z,99.90
